sensor_id;sensor_type;location;lat;lon;timestamp;pressure;altitude;pressure_sealevel;temperature;humidity
79586;BME280;69054;50.866;4.636;2023-06-22T00:00:55;101493.19;;;18.53;75.48
79586;BME280;69054;50.866;4.636;2023-06-22T00:03:22;101499.59;;;18.53;75.28
79586;BME280;69054;50.866;4.636;2023-06-22T00:05:48;101494.28;;;18.52;75.60
79586;BME280;69054;50.866;4.636;2023-06-22T00:08:14;101486.47;;;18.49;76.27
79586;BME280;69054;50.866;4.636;2023-06-22T00:10:40;101483.06;;;18.47;75.93
79586;BME280;69054;50.866;4.636;2023-06-22T00:13:07;101480.38;;;18.40;76.09
79586;BME280;69054;50.866;4.636;2023-06-22T00:15:33;101474.78;;;18.28;76.09
79586;BME280;69054;50.866;4.636;2023-06-22T00:17:59;101477.44;;;18.16;76.67
79586;BME280;69054;50.866;4.636;2023-06-22T00:20:25;101468.59;;;18.07;77.05
79586;BME280;69054;50.866;4.636;2023-06-22T00:22:56;101470.06;;;17.91;77.30
79586;BME280;69054;50.866;4.636;2023-06-22T00:25:22;101469.09;;;17.79;78.24
79586;BME280;69054;50.866;4.636;2023-06-22T00:27:48;101464.53;;;17.66;79.07
79586;BME280;69054;50.866;4.636;2023-06-22T00:30:16;101457.38;;;17.59;79.12
79586;BME280;69054;50.866;4.636;2023-06-22T00:32:42;101457.59;;;17.57;79.17
79586;BME280;69054;50.866;4.636;2023-06-22T00:35:08;101452.53;;;17.54;79.19
79586;BME280;69054;50.866;4.636;2023-06-22T00:37:35;101460.44;;;17.50;79.43
79586;BME280;69054;50.866;4.636;2023-06-22T00:40:01;101459.56;;;17.50;79.24
79586;BME280;69054;50.866;4.636;2023-06-22T00:42:27;101464.88;;;17.51;79.24
79586;BME280;69054;50.866;4.636;2023-06-22T00:44:52;101457.03;;;17.48;79.87
79586;BME280;69054;50.866;4.636;2023-06-22T00:47:18;101465.31;;;17.48;79.94
79586;BME280;69054;50.866;4.636;2023-06-22T00:49:44;101467.63;;;17.51;79.67
79586;BME280;69054;50.866;4.636;2023-06-22T00:52:10;101472.03;;;17.59;79.18
79586;BME280;69054;50.866;4.636;2023-06-22T00:54:40;101469.00;;;17.67;79.17
79586;BME280;69054;50.866;4.636;2023-06-22T00:57:13;101469.16;;;17.72;78.51
79586;BME280;69054;50.866;4.636;2023-06-22T00:59:42;101459.09;;;17.78;78.22
79586;BME280;69054;50.866;4.636;2023-06-22T01:02:08;101465.88;;;17.82;78.19
79586;BME280;69054;50.866;4.636;2023-06-22T01:04:35;101475.16;;;17.88;78.11
79586;BME280;69054;50.866;4.636;2023-06-22T01:09:50;101470.41;;;18.02;78.12
79586;BME280;69054;50.866;4.636;2023-06-22T01:12:19;101464.41;;;18.05;77.13
79586;BME280;69054;50.866;4.636;2023-06-22T01:14:52;101460.09;;;18.09;77.15
79586;BME280;69054;50.866;4.636;2023-06-22T01:17:21;101466.25;;;18.11;76.86
79586;BME280;69054;50.866;4.636;2023-06-22T01:19:49;101467.31;;;18.10;76.48
79586;BME280;69054;50.866;4.636;2023-06-22T01:22:23;101461.41;;;18.06;76.59
79586;BME280;69054;50.866;4.636;2023-06-22T01:27:39;101454.38;;;17.85;77.25
79586;BME280;69054;50.866;4.636;2023-06-22T01:30:11;101445.59;;;17.70;77.67
79586;BME280;69054;50.866;4.636;2023-06-22T01:32:40;101444.38;;;17.59;78.64
79586;BME280;69054;50.866;4.636;2023-06-22T01:35:07;101438.72;;;17.54;78.51
79586;BME280;69054;50.866;4.636;2023-06-22T01:37:34;101432.41;;;17.47;77.78
79586;BME280;69054;50.866;4.636;2023-06-22T01:40:01;101441.81;;;17.39;78.34
79586;BME280;69054;50.866;4.636;2023-06-22T01:42:28;101436.13;;;17.34;78.48
79586;BME280;69054;50.866;4.636;2023-06-22T01:44:55;101434.72;;;17.25;78.90
79586;BME280;69054;50.866;4.636;2023-06-22T01:47:22;101434.53;;;17.19;79.47
79586;BME280;69054;50.866;4.636;2023-06-22T01:49:48;101434.81;;;17.11;79.71
79586;BME280;69054;50.866;4.636;2023-06-22T01:52:15;101430.00;;;17.00;80.34
79586;BME280;69054;50.866;4.636;2023-06-22T01:54:41;101433.25;;;16.90;80.71
79586;BME280;69054;50.866;4.636;2023-06-22T01:57:07;101429.25;;;16.79;80.98
79586;BME280;69054;50.866;4.636;2023-06-22T01:59:37;101424.03;;;16.64;81.69
79586;BME280;69054;50.866;4.636;2023-06-22T02:02:10;101433.00;;;16.53;81.65
79586;BME280;69054;50.866;4.636;2023-06-22T02:07:13;101431.59;;;16.37;81.94
79586;BME280;69054;50.866;4.636;2023-06-22T02:09:43;101435.84;;;16.40;83.86
79586;BME280;69054;50.866;4.636;2023-06-22T02:12:11;101433.31;;;16.38;83.76
79586;BME280;69054;50.866;4.636;2023-06-22T02:14:38;101424.59;;;16.35;83.65
79586;BME280;69054;50.866;4.636;2023-06-22T02:17:04;101427.19;;;16.29;82.85
79586;BME280;69054;50.866;4.636;2023-06-22T02:19:35;101425.28;;;16.23;83.29
79586;BME280;69054;50.866;4.636;2023-06-22T02:22:01;101436.75;;;16.20;83.37
79586;BME280;69054;50.866;4.636;2023-06-22T02:24:26;101436.34;;;16.17;83.62
79586;BME280;69054;50.866;4.636;2023-06-22T02:26:52;101424.47;;;16.16;83.99
79586;BME280;69054;50.866;4.636;2023-06-22T02:29:17;101423.81;;;16.21;84.12
79586;BME280;69054;50.866;4.636;2023-06-22T02:31:43;101420.00;;;16.22;84.29
79586;BME280;69054;50.866;4.636;2023-06-22T02:34:08;101411.94;;;16.20;84.59
79586;BME280;69054;50.866;4.636;2023-06-22T02:36:33;101407.72;;;16.18;84.86
79586;BME280;69054;50.866;4.636;2023-06-22T02:38:59;101411.75;;;16.15;84.86
79586;BME280;69054;50.866;4.636;2023-06-22T02:41:26;101405.00;;;16.11;85.09
79586;BME280;69054;50.866;4.636;2023-06-22T02:43:52;101392.03;;;16.11;85.08
79586;BME280;69054;50.866;4.636;2023-06-22T02:46:17;101391.44;;;16.09;85.57
79586;BME280;69054;50.866;4.636;2023-06-22T02:48:43;101399.91;;;16.08;85.12
79586;BME280;69054;50.866;4.636;2023-06-22T02:51:08;101397.13;;;16.14;85.14
79586;BME280;69054;50.866;4.636;2023-06-22T02:53:34;101387.53;;;16.24;84.77
79586;BME280;69054;50.866;4.636;2023-06-22T02:56:01;101390.91;;;16.32;84.59
79586;BME280;69054;50.866;4.636;2023-06-22T02:58:26;101382.34;;;16.41;84.03
79586;BME280;69054;50.866;4.636;2023-06-22T03:00:52;101379.38;;;16.42;83.39
79586;BME280;69054;50.866;4.636;2023-06-22T03:03:19;101377.72;;;16.41;84.09
79586;BME280;69054;50.866;4.636;2023-06-22T03:05:45;101378.94;;;16.45;83.79
79586;BME280;69054;50.866;4.636;2023-06-22T03:08:10;101367.91;;;16.45;82.88
79586;BME280;69054;50.866;4.636;2023-06-22T03:10:36;101363.59;;;16.56;82.30
79586;BME280;69054;50.866;4.636;2023-06-22T03:13:01;101367.81;;;16.65;81.49
79586;BME280;69054;50.866;4.636;2023-06-22T03:15:26;101367.31;;;16.75;80.72
79586;BME280;69054;50.866;4.636;2023-06-22T03:17:54;101364.69;;;16.80;80.60
79586;BME280;69054;50.866;4.636;2023-06-22T03:20:20;101362.13;;;16.85;80.44
79586;BME280;69054;50.866;4.636;2023-06-22T03:22:45;101367.66;;;16.85;81.29
79586;BME280;69054;50.866;4.636;2023-06-22T03:25:11;101370.22;;;16.87;81.25
79586;BME280;69054;50.866;4.636;2023-06-22T03:27:41;101373.81;;;16.88;81.29
79586;BME280;69054;50.866;4.636;2023-06-22T03:30:08;101374.47;;;16.90;80.74
79586;BME280;69054;50.866;4.636;2023-06-22T03:32:34;101372.03;;;17.00;80.84
79586;BME280;69054;50.866;4.636;2023-06-22T03:35:00;101380.06;;;17.08;80.10
79586;BME280;69054;50.866;4.636;2023-06-22T03:37:26;101374.69;;;17.13;80.12
79586;BME280;69054;50.866;4.636;2023-06-22T03:39:52;101368.31;;;17.13;80.35
79586;BME280;69054;50.866;4.636;2023-06-22T03:42:17;101366.03;;;17.10;80.50
79586;BME280;69054;50.866;4.636;2023-06-22T03:44:43;101370.06;;;17.07;80.93
79586;BME280;69054;50.866;4.636;2023-06-22T03:47:08;101373.88;;;17.06;79.98
79586;BME280;69054;50.866;4.636;2023-06-22T03:49:34;101377.66;;;17.12;78.85
79586;BME280;69054;50.866;4.636;2023-06-22T03:52:00;101378.69;;;17.17;79.17
79586;BME280;69054;50.866;4.636;2023-06-22T03:54:27;101387.13;;;17.23;79.71
79586;BME280;69054;50.866;4.636;2023-06-22T03:56:53;101373.50;;;17.28;78.76
79586;BME280;69054;50.866;4.636;2023-06-22T03:59:18;101383.88;;;17.32;79.48
79586;BME280;69054;50.866;4.636;2023-06-22T04:01:43;101388.72;;;17.37;78.90
79586;BME280;69054;50.866;4.636;2023-06-22T04:04:09;101381.69;;;17.41;78.77
79586;BME280;69054;50.866;4.636;2023-06-22T04:06:35;101381.84;;;17.46;78.34
79586;BME280;69054;50.866;4.636;2023-06-22T04:09:00;101378.63;;;17.49;78.26
79586;BME280;69054;50.866;4.636;2023-06-22T04:11:26;101385.38;;;17.53;78.19
79586;BME280;69054;50.866;4.636;2023-06-22T04:13:51;101389.81;;;17.54;79.01
79586;BME280;69054;50.866;4.636;2023-06-22T04:16:16;101389.81;;;17.54;79.01
79586;BME280;69054;50.866;4.636;2023-06-22T04:18:42;101387.91;;;17.55;78.40
79586;BME280;69054;50.866;4.636;2023-06-22T04:21:07;101387.06;;;17.54;78.45
79586;BME280;69054;50.866;4.636;2023-06-22T04:23:32;101387.69;;;17.56;78.33
79586;BME280;69054;50.866;4.636;2023-06-22T04:25:58;101378.31;;;17.58;78.82
79586;BME280;69054;50.866;4.636;2023-06-22T04:28:24;101383.22;;;17.55;79.54
79586;BME280;69054;50.866;4.636;2023-06-22T04:30:50;101395.09;;;17.56;79.22
79586;BME280;69054;50.866;4.636;2023-06-22T04:33:16;101386.81;;;17.56;78.47
79586;BME280;69054;50.866;4.636;2023-06-22T04:35:44;101395.53;;;17.60;78.70
79586;BME280;69054;50.866;4.636;2023-06-22T04:38:12;101392.06;;;17.64;78.44
79586;BME280;69054;50.866;4.636;2023-06-22T04:40:41;101389.22;;;17.71;78.52
79586;BME280;69054;50.866;4.636;2023-06-22T04:43:06;101393.84;;;17.77;78.34
79586;BME280;69054;50.866;4.636;2023-06-22T04:45:32;101394.63;;;17.84;77.57
79586;BME280;69054;50.866;4.636;2023-06-22T04:47:58;101391.59;;;17.93;77.07
79586;BME280;69054;50.866;4.636;2023-06-22T04:50:23;101385.06;;;18.05;76.88
79586;BME280;69054;50.866;4.636;2023-06-22T04:52:50;101394.25;;;18.18;77.05
79586;BME280;69054;50.866;4.636;2023-06-22T04:55:16;101398.16;;;18.29;76.89
79586;BME280;69054;50.866;4.636;2023-06-22T04:57:45;101391.22;;;18.38;77.13
79586;BME280;69054;50.866;4.636;2023-06-22T05:00:15;101388.63;;;18.43;76.32
79586;BME280;69054;50.866;4.636;2023-06-22T05:02:42;101392.00;;;18.45;76.12
79586;BME280;69054;50.866;4.636;2023-06-22T05:05:08;101392.38;;;18.49;76.18
79586;BME280;69054;50.866;4.636;2023-06-22T05:07:34;101393.44;;;18.48;76.58
79586;BME280;69054;50.866;4.636;2023-06-22T05:10:01;101407.13;;;18.42;76.52
79586;BME280;69054;50.866;4.636;2023-06-22T05:12:27;101411.69;;;18.37;77.17
79586;BME280;69054;50.866;4.636;2023-06-22T05:14:53;101410.47;;;18.33;77.37
79586;BME280;69054;50.866;4.636;2023-06-22T05:17:19;101406.38;;;18.35;77.74
79586;BME280;69054;50.866;4.636;2023-06-22T05:19:44;101400.75;;;18.42;77.73
79586;BME280;69054;50.866;4.636;2023-06-22T05:22:16;101404.88;;;18.51;77.32
79586;BME280;69054;50.866;4.636;2023-06-22T05:24:43;101395.34;;;18.66;77.20
79586;BME280;69054;50.866;4.636;2023-06-22T05:27:09;101398.38;;;18.76;75.78
79586;BME280;69054;50.866;4.636;2023-06-22T05:29:36;101404.34;;;18.91;75.09
79586;BME280;69054;50.866;4.636;2023-06-22T05:32:02;101401.38;;;19.05;75.17
79586;BME280;69054;50.866;4.636;2023-06-22T05:34:27;101393.19;;;19.10;75.01
79586;BME280;69054;50.866;4.636;2023-06-22T05:36:53;101400.44;;;19.11;74.50
79586;BME280;69054;50.866;4.636;2023-06-22T05:39:18;101401.03;;;19.13;74.87
79586;BME280;69054;50.866;4.636;2023-06-22T05:41:46;101396.19;;;19.08;74.95
79586;BME280;69054;50.866;4.636;2023-06-22T05:44:12;101394.25;;;18.97;74.42
79586;BME280;69054;50.866;4.636;2023-06-22T05:46:41;101397.13;;;18.90;74.60
79586;BME280;69054;50.866;4.636;2023-06-22T05:49:09;101405.91;;;18.87;74.91
79586;BME280;69054;50.866;4.636;2023-06-22T05:51:35;101406.72;;;18.88;74.33
79586;BME280;69054;50.866;4.636;2023-06-22T05:54:00;101395.19;;;18.91;74.48
79586;BME280;69054;50.866;4.636;2023-06-22T05:56:26;101390.03;;;18.94;74.87
79586;BME280;69054;50.866;4.636;2023-06-22T05:58:51;101391.25;;;18.99;74.35
79586;BME280;69054;50.866;4.636;2023-06-22T06:01:16;101389.31;;;18.99;75.13
79586;BME280;69054;50.866;4.636;2023-06-22T06:03:42;101384.38;;;19.01;74.52
79586;BME280;69054;50.866;4.636;2023-06-22T06:06:07;101384.06;;;19.09;74.02
79586;BME280;69054;50.866;4.636;2023-06-22T06:08:33;101382.94;;;19.10;74.79
79586;BME280;69054;50.866;4.636;2023-06-22T06:10:58;101381.75;;;19.18;73.66
79586;BME280;69054;50.866;4.636;2023-06-22T06:13:24;101377.94;;;19.31;74.17
79586;BME280;69054;50.866;4.636;2023-06-22T06:15:49;101369.25;;;19.39;73.11
79586;BME280;69054;50.866;4.636;2023-06-22T06:18:17;101362.88;;;19.50;72.83
79586;BME280;69054;50.866;4.636;2023-06-22T06:20:42;101362.97;;;19.56;72.44
79586;BME280;69054;50.866;4.636;2023-06-22T06:23:07;101352.03;;;19.49;72.86
79586;BME280;69054;50.866;4.636;2023-06-22T06:25:33;101342.63;;;19.50;73.02
79586;BME280;69054;50.866;4.636;2023-06-22T06:27:58;101337.78;;;19.57;72.39
79586;BME280;69054;50.866;4.636;2023-06-22T06:30:24;101338.13;;;19.84;72.02
79586;BME280;69054;50.866;4.636;2023-06-22T06:32:50;101333.44;;;20.26;69.90
79586;BME280;69054;50.866;4.636;2023-06-22T06:35:15;101334.66;;;20.47;69.84
79586;BME280;69054;50.866;4.636;2023-06-22T06:37:43;101333.00;;;20.74;70.07
79586;BME280;69054;50.866;4.636;2023-06-22T06:40:09;101338.63;;;20.80;68.23
79586;BME280;69054;50.866;4.636;2023-06-22T06:42:41;101332.25;;;20.96;68.06
79586;BME280;69054;50.866;4.636;2023-06-22T06:45:10;101331.16;;;20.97;68.49
79586;BME280;69054;50.866;4.636;2023-06-22T06:47:35;101329.53;;;21.01;68.76
79586;BME280;69054;50.866;4.636;2023-06-22T06:50:02;101327.13;;;21.05;67.27
79586;BME280;69054;50.866;4.636;2023-06-22T06:52:27;101332.69;;;20.88;67.81
79586;BME280;69054;50.866;4.636;2023-06-22T06:54:53;101331.22;;;21.02;68.73
79586;BME280;69054;50.866;4.636;2023-06-22T06:57:18;101326.75;;;21.01;67.83
79586;BME280;69054;50.866;4.636;2023-06-22T06:59:45;101327.38;;;20.86;68.74
79586;BME280;69054;50.866;4.636;2023-06-22T07:02:11;101322.22;;;20.95;70.25
79586;BME280;69054;50.866;4.636;2023-06-22T07:04:36;101310.97;;;20.85;69.34
79586;BME280;69054;50.866;4.636;2023-06-22T07:07:02;101307.06;;;20.86;69.79
79586;BME280;69054;50.866;4.636;2023-06-22T07:09:28;101303.31;;;21.09;69.50
79586;BME280;69054;50.866;4.636;2023-06-22T07:11:53;101299.50;;;20.81;69.67
79586;BME280;69054;50.866;4.636;2023-06-22T07:14:19;101295.63;;;20.99;67.95
79586;BME280;69054;50.866;4.636;2023-06-22T07:16:44;101281.38;;;21.30;68.17
79586;BME280;69054;50.866;4.636;2023-06-22T07:19:11;101277.50;;;21.31;66.66
79586;BME280;69054;50.866;4.636;2023-06-22T07:21:37;101275.13;;;21.39;67.64
79586;BME280;69054;50.866;4.636;2023-06-22T07:24:04;101264.63;;;21.47;66.84
79586;BME280;69054;50.866;4.636;2023-06-22T07:26:31;101258.72;;;21.60;66.57
79586;BME280;69054;50.866;4.636;2023-06-22T07:28:56;101253.56;;;21.69;67.66
79586;BME280;69054;50.866;4.636;2023-06-22T07:31:24;101251.00;;;21.62;66.58
79586;BME280;69054;50.866;4.636;2023-06-22T07:33:49;101253.88;;;21.72;66.20
79586;BME280;69054;50.866;4.636;2023-06-22T07:36:16;101251.94;;;21.51;66.69
79586;BME280;69054;50.866;4.636;2023-06-22T07:38:44;101243.53;;;21.45;67.29
79586;BME280;69054;50.866;4.636;2023-06-22T07:41:09;101247.50;;;21.33;67.17
79586;BME280;69054;50.866;4.636;2023-06-22T07:43:34;101245.19;;;21.24;66.66
79586;BME280;69054;50.866;4.636;2023-06-22T07:46:05;101237.38;;;21.04;67.44
79586;BME280;69054;50.866;4.636;2023-06-22T07:48:30;101249.25;;;21.00;66.93
79586;BME280;69054;50.866;4.636;2023-06-22T07:50:56;101245.81;;;20.76;67.62
79586;BME280;69054;50.866;4.636;2023-06-22T07:53:22;101249.41;;;20.59;69.75
79586;BME280;69054;50.866;4.636;2023-06-22T07:55:48;101252.00;;;20.49;67.81
79586;BME280;69054;50.866;4.636;2023-06-22T07:58:13;101251.31;;;20.42;69.46
79586;BME280;69054;50.866;4.636;2023-06-22T08:00:39;101256.59;;;20.26;69.32
79586;BME280;69054;50.866;4.636;2023-06-22T08:03:04;101258.09;;;20.17;70.19
79586;BME280;69054;50.866;4.636;2023-06-22T08:05:30;101261.13;;;20.15;70.64
79586;BME280;69054;50.866;4.636;2023-06-22T08:07:56;101255.22;;;20.12;71.32
79586;BME280;69054;50.866;4.636;2023-06-22T08:10:22;101252.94;;;20.09;72.14
79586;BME280;69054;50.866;4.636;2023-06-22T08:12:47;101248.88;;;19.99;71.17
79586;BME280;69054;50.866;4.636;2023-06-22T08:15:12;101251.06;;;19.97;72.62
79586;BME280;69054;50.866;4.636;2023-06-22T08:17:38;101243.00;;;19.96;71.03
79586;BME280;69054;50.866;4.636;2023-06-22T08:20:05;101242.63;;;19.92;71.65
79586;BME280;69054;50.866;4.636;2023-06-22T08:22:38;101237.69;;;19.94;72.09
79586;BME280;69054;50.866;4.636;2023-06-22T08:25:04;101233.81;;;19.95;71.50
79586;BME280;69054;50.866;4.636;2023-06-22T08:27:30;101234.19;;;19.99;71.28
79586;BME280;69054;50.866;4.636;2023-06-22T08:29:57;101231.75;;;20.02;71.65
79586;BME280;69054;50.866;4.636;2023-06-22T08:32:24;101239.56;;;20.06;71.36
79586;BME280;69054;50.866;4.636;2023-06-22T08:34:52;101233.28;;;20.10;70.68
79586;BME280;69054;50.866;4.636;2023-06-22T08:37:17;101236.41;;;20.14;70.04
79586;BME280;69054;50.866;4.636;2023-06-22T08:39:42;101230.69;;;20.20;70.27
79586;BME280;69054;50.866;4.636;2023-06-22T08:42:08;101238.38;;;20.30;70.73
79586;BME280;69054;50.866;4.636;2023-06-22T08:44:33;101235.69;;;20.35;69.19
79586;BME280;69054;50.866;4.636;2023-06-22T08:46:58;101244.19;;;20.29;69.15
79586;BME280;69054;50.866;4.636;2023-06-22T08:49:24;101240.03;;;20.31;70.55
79586;BME280;69054;50.866;4.636;2023-06-22T08:51:49;101239.44;;;20.29;70.29
79586;BME280;69054;50.866;4.636;2023-06-22T08:54:17;101245.31;;;20.16;70.45
79586;BME280;69054;50.866;4.636;2023-06-22T08:56:42;101241.38;;;20.00;70.82
79586;BME280;69054;50.866;4.636;2023-06-22T08:59:09;101252.56;;;19.88;71.63
79586;BME280;69054;50.866;4.636;2023-06-22T09:01:34;101257.06;;;19.54;74.78
79586;BME280;69054;50.866;4.636;2023-06-22T09:04:00;101259.78;;;19.13;77.79
79586;BME280;69054;50.866;4.636;2023-06-22T09:06:25;101256.41;;;18.87;80.40
79586;BME280;69054;50.866;4.636;2023-06-22T09:08:51;101257.53;;;18.68;83.60
79586;BME280;69054;50.866;4.636;2023-06-22T09:11:16;101258.00;;;18.53;82.08
79586;BME280;69054;50.866;4.636;2023-06-22T09:13:41;101260.66;;;18.48;81.76
79586;BME280;69054;50.866;4.636;2023-06-22T09:16:07;101256.78;;;18.37;83.88
79586;BME280;69054;50.866;4.636;2023-06-22T09:18:36;101251.31;;;18.30;84.77
79586;BME280;69054;50.866;4.636;2023-06-22T09:21:01;101263.56;;;18.22;84.03
79586;BME280;69054;50.866;4.636;2023-06-22T09:23:27;101268.22;;;18.10;82.50
79586;BME280;69054;50.866;4.636;2023-06-22T09:25:52;101268.69;;;18.07;82.70
79586;BME280;69054;50.866;4.636;2023-06-22T09:28:18;101283.09;;;18.09;84.68
79586;BME280;69054;50.866;4.636;2023-06-22T09:30:43;101294.56;;;18.13;85.41
79586;BME280;69054;50.866;4.636;2023-06-22T09:33:11;101293.22;;;18.15;86.18
79586;BME280;69054;50.866;4.636;2023-06-22T09:35:37;101296.88;;;18.16;85.94
79586;BME280;69054;50.866;4.636;2023-06-22T09:38:02;101315.22;;;18.10;87.18
79586;BME280;69054;50.866;4.636;2023-06-22T09:40:28;101316.28;;;18.09;89.07
79586;BME280;69054;50.866;4.636;2023-06-22T09:42:53;101330.91;;;17.98;87.31
79586;BME280;69054;50.866;4.636;2023-06-22T09:45:19;101332.50;;;17.87;90.19
79586;BME280;69054;50.866;4.636;2023-06-22T09:47:44;101341.50;;;17.82;89.75
79586;BME280;69054;50.866;4.636;2023-06-22T09:50:09;101343.47;;;17.75;90.90
79586;BME280;69054;50.866;4.636;2023-06-22T09:52:35;101342.56;;;17.63;91.47
79586;BME280;69054;50.866;4.636;2023-06-22T09:55:00;101347.63;;;17.47;91.96
79586;BME280;69054;50.866;4.636;2023-06-22T09:57:26;101348.19;;;17.31;92.09
79586;BME280;69054;50.866;4.636;2023-06-22T09:59:51;101339.34;;;17.22;94.93
79586;BME280;69054;50.866;4.636;2023-06-22T10:02:16;101350.56;;;17.27;95.63
79586;BME280;69054;50.866;4.636;2023-06-22T10:04:42;101355.56;;;17.37;96.50
79586;BME280;69054;50.866;4.636;2023-06-22T10:07:07;101357.88;;;17.40;95.11
79586;BME280;69054;50.866;4.636;2023-06-22T10:09:33;101356.50;;;17.49;95.47
79586;BME280;69054;50.866;4.636;2023-06-22T10:11:58;101351.91;;;17.62;95.20
79586;BME280;69054;50.866;4.636;2023-06-22T10:14:23;101344.22;;;17.64;93.32
79586;BME280;69054;50.866;4.636;2023-06-22T10:16:51;101340.59;;;17.70;95.21
79586;BME280;69054;50.866;4.636;2023-06-22T10:19:17;101336.03;;;17.76;94.62
79586;BME280;69054;50.866;4.636;2023-06-22T10:21:42;101326.66;;;17.77;93.57
79586;BME280;69054;50.866;4.636;2023-06-22T10:24:08;101309.94;;;17.71;93.60
79586;BME280;69054;50.866;4.636;2023-06-22T10:26:35;101295.44;;;17.76;93.52
79586;BME280;69054;50.866;4.636;2023-06-22T10:29:01;101278.00;;;17.76;93.94
79586;BME280;69054;50.866;4.636;2023-06-22T10:31:27;101282.00;;;17.80;94.61
79586;BME280;69054;50.866;4.636;2023-06-22T10:33:53;101272.22;;;17.77;95.22
79586;BME280;69054;50.866;4.636;2023-06-22T10:36:19;101256.44;;;17.66;94.01
79586;BME280;69054;50.866;4.636;2023-06-22T10:38:44;101251.16;;;17.64;94.07
79586;BME280;69054;50.866;4.636;2023-06-22T10:41:10;101238.50;;;17.56;94.22
79586;BME280;69054;50.866;4.636;2023-06-22T10:43:36;101243.09;;;17.44;94.38
79586;BME280;69054;50.866;4.636;2023-06-22T10:46:01;101232.59;;;17.34;94.75
79586;BME280;69054;50.866;4.636;2023-06-22T10:48:26;101228.75;;;17.17;95.46
79586;BME280;69054;50.866;4.636;2023-06-22T10:50:52;101214.16;;;17.10;95.43
79586;BME280;69054;50.866;4.636;2023-06-22T10:53:18;101209.63;;;16.97;94.50
79586;BME280;69054;50.866;4.636;2023-06-22T10:55:43;101192.13;;;17.03;95.60
79586;BME280;69054;50.866;4.636;2023-06-22T10:58:09;101181.03;;;17.10;94.94
79586;BME280;69054;50.866;4.636;2023-06-22T11:00:34;101174.66;;;17.09;94.96
79586;BME280;69054;50.866;4.636;2023-06-22T11:02:59;101173.31;;;17.18;94.49
79586;BME280;69054;50.866;4.636;2023-06-22T11:05:25;101168.75;;;17.24;95.31
79586;BME280;69054;50.866;4.636;2023-06-22T11:07:50;101159.16;;;17.27;95.37
79586;BME280;69054;50.866;4.636;2023-06-22T11:10:16;101147.66;;;17.30;95.38
79586;BME280;69054;50.866;4.636;2023-06-22T11:12:41;101147.75;;;17.23;94.46
79586;BME280;69054;50.866;4.636;2023-06-22T11:15:08;101152.41;;;17.23;95.20
79586;BME280;69054;50.866;4.636;2023-06-22T11:17:34;101160.53;;;17.36;94.00
79586;BME280;69054;50.866;4.636;2023-06-22T11:19:59;101171.66;;;17.48;95.61
79586;BME280;69054;50.866;4.636;2023-06-22T11:22:25;101173.84;;;17.58;94.81
79586;BME280;69054;50.866;4.636;2023-06-22T11:24:51;101164.19;;;17.67;94.85
79586;BME280;69054;50.866;4.636;2023-06-22T11:27:16;101165.38;;;17.71;94.97
79586;BME280;69054;50.866;4.636;2023-06-22T11:29:42;101178.59;;;17.69;94.95
79586;BME280;69054;50.866;4.636;2023-06-22T11:32:07;101173.69;;;17.71;94.94
79586;BME280;69054;50.866;4.636;2023-06-22T11:34:33;101167.31;;;17.70;96.04
79586;BME280;69054;50.866;4.636;2023-06-22T11:36:58;101173.69;;;17.71;97.06
79586;BME280;69054;50.866;4.636;2023-06-22T11:39:23;101175.84;;;17.69;96.53
79586;BME280;69054;50.866;4.636;2023-06-22T11:41:49;101180.94;;;17.53;95.60
79586;BME280;69054;50.866;4.636;2023-06-22T11:44:14;101180.63;;;17.43;96.39
79586;BME280;69054;50.866;4.636;2023-06-22T11:46:39;101168.28;;;17.46;96.29
79586;BME280;69054;50.866;4.636;2023-06-22T11:49:05;101174.19;;;17.49;96.52
79586;BME280;69054;50.866;4.636;2023-06-22T11:51:30;101164.38;;;17.53;96.36
79586;BME280;69054;50.866;4.636;2023-06-22T11:53:57;101162.34;;;17.61;96.48
79586;BME280;69054;50.866;4.636;2023-06-22T11:56:22;101155.75;;;17.62;96.35
79586;BME280;69054;50.866;4.636;2023-06-22T11:58:47;101149.91;;;17.70;96.61
79586;BME280;69054;50.866;4.636;2023-06-22T12:01:13;101148.56;;;17.72;96.86
79586;BME280;69054;50.866;4.636;2023-06-22T12:03:40;101148.56;;;17.72;97.22
79586;BME280;69054;50.866;4.636;2023-06-22T12:06:05;101140.28;;;17.72;97.49
79586;BME280;69054;50.866;4.636;2023-06-22T12:08:31;101135.84;;;17.71;97.59
79586;BME280;69054;50.866;4.636;2023-06-22T12:10:56;101136.44;;;17.73;97.96
79586;BME280;69054;50.866;4.636;2023-06-22T12:13:21;101135.84;;;17.71;98.09
79586;BME280;69054;50.866;4.636;2023-06-22T12:15:47;101156.50;;;17.69;98.33
79586;BME280;69054;50.866;4.636;2023-06-22T12:18:12;101149.97;;;17.63;97.99
79586;BME280;69054;50.866;4.636;2023-06-22T12:20:40;101150.69;;;17.59;98.82
79586;BME280;69054;50.866;4.636;2023-06-22T12:23:05;101152.22;;;17.54;98.88
79586;BME280;69054;50.866;4.636;2023-06-22T12:25:30;101158.91;;;17.47;98.83
79586;BME280;69054;50.866;4.636;2023-06-22T12:27:56;101140.97;;;17.37;98.83
79586;BME280;69054;50.866;4.636;2023-06-22T12:30:21;101143.38;;;17.34;99.58
79586;BME280;69054;50.866;4.636;2023-06-22T12:32:47;101141.66;;;17.33;99.02
79586;BME280;69054;50.866;4.636;2023-06-22T12:35:12;101140.69;;;17.27;99.67
79586;BME280;69054;50.866;4.636;2023-06-22T12:37:42;101135.16;;;17.27;99.25
79586;BME280;69054;50.866;4.636;2023-06-22T12:40:08;101135.78;;;17.29;99.79
79586;BME280;69054;50.866;4.636;2023-06-22T12:42:34;101127.97;;;17.26;99.15
79586;BME280;69054;50.866;4.636;2023-06-22T12:44:59;101123.88;;;17.29;99.25
79586;BME280;69054;50.866;4.636;2023-06-22T12:47:25;101121.97;;;17.29;99.74
79586;BME280;69054;50.866;4.636;2023-06-22T12:49:50;101122.81;;;17.30;99.27
79586;BME280;69054;50.866;4.636;2023-06-22T12:52:15;101118.75;;;17.32;99.92